Auburn, New Jersey
Current Conditions -  °F | °C
As of 12:54 AM on Saturday 25 Oct 2014 (Local Time) from KPHL Reporting Station
Scattered Clouds Scattered Clouds  
Wind Chill: 56°   Ceiling: Unl
Heat Index: 56°   Visibility: 10mi
Dew Point: 37°   Wind: 7mph
Humidity: 49%   Direction: 290°WNW
Pressure: 29.9"   Gusts: NA
Location:  39.757°N, 75.3338°W
Report Text: KPHL 250454Z 29006KT 10SM SCT250 13/03 A2990 RMK AO2 SLP124 T01330028 402110117
Loading
Personal Weather Stations






























Interactive Weather Map
Tropical Storm Tracking
New forecast layout! Learn more

10-Day Weather Forecast

Advertisements
Track Severe Weather on mobile